Time;durP1;ratioP1;P1;durP2;ratioP2;P2;SDS_P1;SDS_P2;PMS_P1;PMS_P2;Temp;Humidity;BMP_temperature;BMP_pressure;BME280_temperature;BME280_humidity;BME280_pressure;Samples;Min_cycle;Max_cycle;Signal;HPM_P1;HPM_P2
2021/07/14 00:00:07;;;;;;;15.13;10.10;;;;;;;27.09;39.08;94978.53;5029198;28;20193;-68
2021/07/14 00:02:35;;;;;;;11.57;9.87;;;;;;;27.03;39.48;94967.28;5029805;28;20213;-68
2021/07/14 00:05:06;;;;;;;10.37;9.37;;;;;;;27.17;38.97;94971.38;5029491;28;20189;-68
2021/07/14 00:07:34;;;;;;;11.03;9.87;;;;;;;26.96;39.11;94977.91;5029969;28;20639;-67
2021/07/14 00:10:03;;;;;;;11.47;9.40;;;;;;;26.86;39.26;94967.72;5030241;28;20200;-67
2021/07/14 00:12:31;;;;;;;11.10;9.87;;;;;;;26.98;39.43;94970.28;5029677;28;20224;-68
2021/07/14 00:16:59;;;;;;;10.90;9.80;;;;;;;26.98;38.99;94972.97;5024067;28;20194;-68
2021/07/14 00:22:05;;;;;;;16.70;9.47;;;;;;;26.83;39.39;94970.34;5023794;28;20207;-69
2021/07/14 00:23:19;;;;;;;10.13;9.07;;;;;;;26.50;39.73;94978.91;5029769;28;20193;-69
2021/07/14 00:25:46;;;;;;;10.30;9.40;;;;;;;26.55;39.71;94986.69;5029790;28;20286;-69
2021/07/14 00:28:15;;;;;;;11.57;9.73;;;;;;;26.69;39.99;94970.88;5029784;28;20208;-70
2021/07/14 00:30:48;;;;;;;12.57;9.40;;;;;;;26.57;39.64;94968.28;5029461;28;20197;-69
2021/07/14 00:33:16;;;;;;;10.47;9.47;;;;;;;26.65;39.54;94975.38;5029363;28;20205;-68
2021/07/14 00:35:42;;;;;;;14.77;9.63;;;;;;;26.68;39.23;94963.13;5028737;28;20193;-68
2021/07/14 00:38:10;;;;;;;11.33;9.70;;;;;;;26.68;39.50;94969.31;5032957;28;20189;-67
2021/07/14 00:40:38;;;;;;;11.33;10.13;;;;;;;26.52;39.65;94968.56;5032748;28;20193;-69
2021/07/14 00:43:05;;;;;;;10.37;9.30;;;;;;;26.55;39.91;94973.25;5033357;28;20709;-69
2021/07/14 00:45:33;;;;;;;10.90;9.80;;;;;;;26.53;39.74;94983.56;5033029;28;20208;-68
2021/07/14 00:48:01;;;;;;;12.40;9.57;;;;;;;26.56;39.61;94982.09;5033673;28;20667;-68
2021/07/14 00:50:28;;;;;;;13.90;9.40;;;;;;;26.33;39.75;94984.69;5032985;28;20216;-69
2021/07/14 00:52:55;;;;;;;10.53;9.43;;;;;;;26.36;40.10;94972.47;5019555;28;20239;-68
2021/07/14 00:55:22;;;;;;;12.20;8.93;;;;;;;26.48;39.61;94986.53;5032973;28;20212;-68
2021/07/14 00:57:50;;;;;;;10.17;9.17;;;;;;;26.27;39.48;94975.34;5032984;28;20208;-67
2021/07/14 01:00:18;;;;;;;12.87;9.13;;;;;;;26.21;39.98;94960.63;5022559;28;20228;-69
2021/07/14 01:02:45;;;;;;;10.20;9.30;;;;;;;26.36;39.60;94973.25;5029862;28;20200;-68
2021/07/14 01:05:33;;;;;;;11.07;9.93;;;;;;;26.34;40.03;94983.56;5023926;28;20190;-68
2021/07/14 01:08:17;;;;;;;10.83;9.83;;;;;;;26.48;39.53;94975.78;5030663;28;20195;-70
2021/07/14 01:10:55;;;;;;;11.20;10.00;;;;;;;26.36;39.54;94973.25;5032838;28;20205;-68
2021/07/14 01:13:26;;;;;;;11.33;10.17;;;;;;;26.24;39.56;94973.38;5019122;28;20646;-68
2021/07/14 01:16:01;;;;;;;9.93;8.40;;;;;;;26.17;39.93;94981.28;5032879;28;20599;-69
2021/07/14 01:18:39;;;;;;;11.03;9.43;;;;;;;26.02;40.14;94984.78;5019600;28;20197;-69
2021/07/14 01:21:09;;;;;;;9.83;8.63;;;;;;;26.01;39.94;94983.97;5019533;28;20540;-69
2021/07/14 01:23:36;;;;;;;10.40;9.37;;;;;;;25.94;40.38;94985.72;5015108;28;20593;-69
2021/07/14 01:26:05;;;;;;;10.67;9.70;;;;;;;26.01;40.30;94992.03;5013580;28;20656;-69
2021/07/14 01:28:36;;;;;;;10.30;9.30;;;;;;;25.89;40.28;94994.06;5031892;28;20197;-70
2021/07/14 01:31:04;;;;;;;12.13;9.57;;;;;;;25.81;40.55;94989.66;5032502;28;20185;-67
2021/07/14 01:33:34;;;;;;;10.43;9.37;;;;;;;25.76;40.27;94992.59;5020224;28;20300;-68
2021/07/14 01:36:05;;;;;;;10.07;9.07;;;;;;;25.71;40.67;94995.56;5033580;28;20201;-67
2021/07/14 01:38:35;;;;;;;11.10;10.00;;;;;;;25.69;40.38;94992.44;5033199;28;20209;-68
2021/07/14 01:41:04;;;;;;;11.47;9.73;;;;;;;25.74;41.12;94986.81;5031885;28;20711;-67
2021/07/14 01:43:38;;;;;;;11.47;9.93;;;;;;;25.46;40.92;94983.44;5033512;28;20197;-67
2021/07/14 01:46:07;;;;;;;11.30;10.20;;;;;;;25.27;41.11;94992.16;5033730;28;20189;-67
2021/07/14 01:48:39;;;;;;;11.90;10.37;;;;;;;25.56;40.87;94988.28;5033636;28;20198;-66
2021/07/14 01:51:07;;;;;;;10.80;9.70;;;;;;;25.62;41.27;94992.28;5032506;28;20205;-67
2021/07/14 01:53:36;;;;;;;11.50;10.07;;;;;;;25.60;40.80;94994.53;5033520;28;20197;-67
2021/07/14 01:56:09;;;;;;;12.90;10.37;;;;;;;25.66;41.08;94988.53;5032323;28;20197;-69
2021/07/14 01:58:42;;;;;;;15.43;10.23;;;;;;;25.73;41.10;94987.94;5032776;28;20228;-68
2021/07/14 02:01:12;;;;;;;13.80;10.80;;;;;;;25.62;40.71;94982.31;5028184;28;20198;-68
2021/07/14 02:03:54;;;;;;;15.87;10.03;;;;;;;25.76;40.70;94989.91;5022991;28;20220;-68
2021/07/14 02:06:23;;;;;;;11.47;10.13;;;;;;;25.67;41.18;94982.06;5017684;28;20236;-67
2021/07/14 02:08:50;;;;;;;11.57;10.47;;;;;;;25.62;41.21;94978.84;5032416;28;20192;-68
2021/07/14 02:11:22;;;;;;;11.73;10.53;;;;;;;25.70;41.34;94988.63;5017584;28;20575;-67
2021/07/14 02:13:52;;;;;;;11.53;10.33;;;;;;;25.67;41.31;94989.31;5022995;28;20224;-67
2021/07/14 02:16:23;;;;;;;11.97;10.77;;;;;;;25.68;41.28;94996.25;5028018;28;20299;-68
2021/07/14 02:18:55;;;;;;;14.03;10.80;;;;;;;25.76;40.98;94998.75;5021690;28;20293;-69
2021/07/14 02:21:23;;;;;;;11.27;10.17;;;;;;;25.67;41.13;94994.69;5027624;28;20251;-67
2021/07/14 02:23:50;;;;;;;13.10;10.53;;;;;;;25.68;41.53;94998.91;5031997;28;20193;-68
2021/07/14 02:26:17;;;;;;;11.83;10.73;;;;;;;25.62;41.33;94994.97;5017228;28;20594;-68
2021/07/14 02:28:44;;;;;;;12.93;11.50;;;;;;;25.65;41.46;95007.69;5033289;28;20203;-69
2021/07/14 02:31:11;;;;;;;13.23;11.00;;;;;;;25.64;41.49;95006.09;5032309;28;20280;-67
2021/07/14 02:33:38;;;;;;;13.43;11.33;;;;;;;25.68;41.60;95018.50;5033237;28;20224;-68
2021/07/14 02:36:10;;;;;;;15.17;11.90;;;;;;;25.60;41.66;95014.06;5031309;28;20196;-68
2021/07/14 02:38:42;;;;;;;14.23;11.47;;;;;;;25.49;42.59;95013.03;5032041;28;20219;-68
2021/07/14 02:41:21;;;;;;;13.87;11.50;;;;;;;25.46;42.28;95015.63;5020142;28;20248;-68
2021/07/14 02:43:52;;;;;;;12.53;11.27;;;;;;;25.29;42.61;94994.50;5033719;28;20663;-68
2021/07/14 02:46:26;;;;;;;12.70;11.37;;;;;;;25.55;42.25;95013.56;5018868;28;20233;-68
2021/07/14 02:49:00;;;;;;;12.83;11.07;;;;;;;25.42;42.53;95014.78;5031563;28;20300;-68
2021/07/14 02:51:35;;;;;;;13.60;12.10;;;;;;;25.48;42.46;95024.91;5032934;28;20287;-68
2021/07/14 02:54:08;;;;;;;12.00;10.77;;;;;;;25.52;41.97;95027.66;5031321;28;20612;-69
2021/07/14 02:56:37;;;;;;;13.93;10.93;;;;;;;25.52;42.20;95023.09;5022755;28;20333;-68
2021/07/14 02:59:08;;;;;;;12.13;10.93;;;;;;;25.68;42.36;95033.81;5025163;28;20201;-68
2021/07/14 03:01:40;;;;;;;14.57;11.23;;;;;;;25.68;41.77;95036.50;5032084;28;20647;-68
2021/07/14 03:04:09;;;;;;;12.43;11.23;;;;;;;25.54;42.05;95034.25;5031688;28;20700;-68
2021/07/14 03:09:32;;;;;;;15.93;12.37;;;;;;;25.16;43.02;95043.97;5030261;28;20224;-69
2021/07/14 03:12:00;;;;;;;15.90;11.63;;;;;;;25.08;43.16;95043.78;5031367;28;20548;-69
2021/07/14 03:14:29;;;;;;;16.57;12.37;;;;;;;25.04;43.35;95048.25;5029153;28;20209;-68
2021/07/14 03:16:56;;;;;;;14.30;11.90;;;;;;;24.94;43.57;95054.09;5018802;28;20252;-68
2021/07/14 03:19:27;;;;;;;12.67;11.37;;;;;;;25.13;43.36;95045.41;5029530;28;20671;-68
2021/07/14 03:21:55;;;;;;;13.83;11.73;;;;;;;24.90;43.55;95042.53;5031026;28;20185;-67
2021/07/14 03:24:24;;;;;;;12.63;11.30;;;;;;;25.08;43.81;95046.47;5030704;28;20212;-68
2021/07/14 03:26:51;;;;;;;14.50;11.37;;;;;;;25.18;43.31;95037.13;5011882;28;20568;-69
2021/07/14 03:29:19;;;;;;;13.70;11.67;;;;;;;25.24;43.16;95034.97;5022331;28;20603;-69
2021/07/14 03:31:47;;;;;;;15.87;12.37;;;;;;;25.41;43.31;95035.47;5031177;28;20205;-70
2021/07/14 03:34:16;;;;;;;14.07;11.67;;;;;;;25.60;43.22;95048.19;5030322;28;20189;-71
2021/07/14 03:36:45;;;;;;;13.37;11.87;;;;;;;25.56;43.43;95036.59;5029957;28;20197;-68
2021/07/14 03:39:16;;;;;;;13.20;11.33;;;;;;;25.51;43.54;95039.53;5030559;28;20212;-69
2021/07/14 03:41:47;;;;;;;19.07;13.63;;;;;;;25.41;43.95;95048.88;5031102;28;20807;-69
2021/07/14 03:44:18;;;;;;;18.50;14.33;;;;;;;25.44;43.70;95045.50;5029834;28;20200;-71
2021/07/14 03:46:48;;;;;;;16.13;13.70;;;;;;;25.53;43.83;95048.03;5029563;28;20562;-69
2021/07/14 03:49:17;;;;;;;16.40;13.13;;;;;;;25.41;44.25;95050.78;5030085;28;20280;-69
2021/07/14 03:51:48;;;;;;;22.43;14.57;;;;;;;25.44;44.49;95050.06;5030530;28;20647;-69
2021/07/14 03:54:16;;;;;;;16.47;12.60;;;;;;;25.42;44.71;95057.72;5014382;28;20299;-70
2021/07/14 03:56:43;;;;;;;14.93;13.10;;;;;;;25.29;44.61;95058.88;5029308;28;20208;-69
2021/07/14 03:59:11;;;;;;;17.37;12.73;;;;;;;25.23;44.59;95044.13;5029581;28;20585;-68
2021/07/14 04:01:39;;;;;;;16.43;13.33;;;;;;;25.41;44.68;95061.50;5029682;28;20223;-68
2021/07/14 04:04:07;;;;;;;15.40;12.50;;;;;;;25.39;45.03;95059.16;5034790;28;20215;-67
2021/07/14 04:06:36;;;;;;;16.10;12.17;;;;;;;25.46;44.81;95063.94;5034388;28;20201;-68
2021/07/14 04:09:21;;;;;;;16.77;13.17;;;;;;;25.41;45.00;95067.66;5029171;28;20223;-68
2021/07/14 04:11:54;;;;;;;15.70;13.10;;;;;;;25.46;44.85;95066.59;5023147;28;20209;-69
2021/07/14 04:14:22;;;;;;;15.00;13.20;;;;;;;25.43;44.93;95060.03;5021650;28;20672;-68
2021/07/14 04:16:53;;;;;;;14.33;12.33;;;;;;;25.55;45.04;95067.22;5031902;28;20196;-68
2021/07/14 04:19:21;;;;;;;18.57;12.60;;;;;;;25.58;45.28;95066.53;5029363;28;20200;-69
2021/07/14 04:21:48;;;;;;;14.93;13.10;;;;;;;25.53;45.96;95058.75;5025706;28;20204;-68
2021/07/14 04:24:18;;;;;;;18.20;12.43;;;;;;;25.58;45.95;95069.22;5031591;28;20548;-67
2021/07/14 04:26:46;;;;;;;15.33;12.53;;;;;;;25.53;46.32;95070.25;5031234;28;20209;-68
2021/07/14 04:29:15;;;;;;;14.07;12.57;;;;;;;25.67;45.57;95067.94;5033513;28;20251;-71
2021/07/14 04:31:42;;;;;;;14.23;12.23;;;;;;;25.71;45.80;95065.34;5031904;28;20216;-69
2021/07/14 04:34:10;;;;;;;13.23;11.83;;;;;;;25.71;46.37;95073.41;5028658;28;20221;-72
2021/07/14 04:36:38;;;;;;;16.37;13.53;;;;;;;25.73;46.25;95071.16;5034074;28;20284;-70
2021/07/14 04:39:06;;;;;;;16.93;13.73;;;;;;;25.76;46.31;95071.25;5030647;28;20298;-67
2021/07/14 04:41:33;;;;;;;19.17;13.30;;;;;;;25.71;45.98;95078.78;5019858;28;20237;-74
2021/07/14 04:44:03;;;;;;;23.67;14.70;;;;;;;25.79;46.48;95072.44;5031962;28;20748;-71
2021/07/14 04:46:31;;;;;;;20.50;14.23;;;;;;;25.83;46.19;95079.47;5030592;28;20201;-76
2021/07/14 04:48:59;;;;;;;16.17;13.97;;;;;;;25.82;46.62;95069.06;5027026;28;20196;-75
2021/07/14 04:51:27;;;;;;;111.50;99.37;;;;;;;25.93;46.75;95075.44;5028821;28;20204;-77
2021/07/14 04:53:54;;;;;;;28.53;23.03;;;;;;;26.01;46.32;95082.56;5028631;28;20221;-74
2021/07/14 04:56:22;;;;;;;21.00;18.40;;;;;;;26.01;45.78;95087.94;5016142;28;20209;-74
2021/07/14 04:58:49;;;;;;;20.33;13.77;;;;;;;25.99;45.21;95093.66;5029599;28;20205;-73
2021/07/14 05:01:17;;;;;;;20.67;14.77;;;;;;;25.86;45.34;95077.97;5025078;28;20200;-75
2021/07/14 05:03:46;;;;;;;18.80;13.43;;;;;;;26.01;44.95;95101.34;5021044;28;20217;-74
2021/07/14 05:06:17;;;;;;;18.00;13.27;;;;;;;25.86;46.46;95110.19;5029824;28;20640;-75
2021/07/14 05:08:45;;;;;;;19.03;13.37;;;;;;;25.82;46.14;95103.97;5030174;28;20201;-73
2021/07/14 05:11:13;;;;;;;15.67;13.03;;;;;;;26.16;45.78;95102.50;5029843;28;20632;-75
2021/07/14 05:13:41;;;;;;;19.70;13.57;;;;;;;26.30;45.52;95103.59;5030069;28;20229;-68
2021/07/14 05:16:08;;;;;;;15.47;12.77;;;;;;;26.26;46.40;95102.75;5028164;28;20193;-72
2021/07/14 05:18:37;;;;;;;19.20;13.90;;;;;;;26.25;46.85;95109.25;5016767;28;20200;-71
2021/07/14 05:21:04;;;;;;;30.13;26.10;;;;;;;26.28;46.53;95094.31;5029372;28;20671;-73
2021/07/14 05:23:32;;;;;;;21.00;16.90;;;;;;;26.34;46.27;95099.09;5017388;28;20211;-72
2021/07/14 05:26:00;;;;;;;42.50;36.07;;;;;;;26.45;45.97;95100.13;5033264;28;20224;-71
2021/07/14 05:28:27;;;;;;;34.90;28.77;;;;;;;26.54;45.30;95092.63;5032167;28;20201;-73
2021/07/14 05:30:54;;;;;;;28.63;15.10;;;;;;;26.52;44.71;95100.28;5033408;28;20313;-71
2021/07/14 05:33:21;;;;;;;49.03;37.73;;;;;;;26.47;45.05;95097.88;5032321;28;20252;-71
2021/07/14 05:35:48;;;;;;;23.50;15.17;;;;;;;26.54;45.05;95092.63;5032027;28;20189;-73
2021/07/14 05:38:19;;;;;;;20.37;13.20;;;;;;;26.60;44.80;95088.56;5023110;28;20204;-71
2021/07/14 05:40:48;;;;;;;21.60;12.77;;;;;;;26.75;45.08;95103.88;5028572;28;20305;-70
2021/07/14 05:43:15;;;;;;;19.83;14.33;;;;;;;26.72;44.54;95088.44;5033482;28;20201;-71
2021/07/14 05:45:42;;;;;;;38.87;29.17;;;;;;;26.69;44.62;95093.75;5032331;28;20204;-70
2021/07/14 05:48:09;;;;;;;33.27;26.73;;;;;;;26.86;43.91;95101.41;5033015;28;20284;-73
2021/07/14 05:50:37;;;;;;;23.30;13.60;;;;;;;26.84;44.40;95104.44;5034523;28;20323;-70
2021/07/14 05:53:05;;;;;;;20.53;13.43;;;;;;;26.73;45.12;95111.50;5019937;28;20228;-72
2021/07/14 05:55:32;;;;;;;16.93;12.27;;;;;;;26.63;45.52;95103.19;5032019;28;20283;-72
2021/07/14 05:57:59;;;;;;;18.57;12.57;;;;;;;26.91;44.96;95103.81;5027036;28;20205;-72
2021/07/14 06:00:27;;;;;;;13.40;11.73;;;;;;;26.81;44.87;95091.72;5012286;28;20197;-71
2021/07/14 06:02:54;;;;;;;16.70;12.60;;;;;;;27.01;44.45;95106.72;5015357;28;20212;-71
2021/07/14 06:05:22;;;;;;;20.23;12.70;;;;;;;26.99;44.52;95103.59;5021784;28;20264;-71
2021/07/14 06:07:48;;;;;;;24.13;12.60;;;;;;;26.91;44.53;95101.91;5028595;28;20219;-72
2021/07/14 06:10:15;;;;;;;16.97;11.67;;;;;;;26.99;45.26;95108.19;5031601;28;20208;-71
2021/07/14 06:12:42;;;;;;;18.93;12.60;;;;;;;27.11;44.86;95109.97;5017774;28;20216;-71
2021/07/14 06:15:09;;;;;;;14.47;11.80;;;;;;;27.16;44.34;95117.75;5012281;28;20751;-71
2021/07/14 06:17:36;;;;;;;17.57;12.93;;;;;;;27.27;43.98;95113.38;5025575;28;20193;-73
2021/07/14 06:20:07;;;;;;;13.77;11.93;;;;;;;27.38;43.92;95115.16;5031376;28;20215;-71
2021/07/14 06:22:34;;;;;;;14.20;11.20;;;;;;;27.28;44.57;95112.25;5032195;28;20200;-71
2021/07/14 06:25:01;;;;;;;17.17;12.53;;;;;;;27.54;43.93;95112.38;5031158;28;20197;-72
2021/07/14 06:27:42;;;;;;;12.30;11.13;;;;;;;27.48;43.79;95108.44;5019434;28;20221;-72
2021/07/14 06:30:12;;;;;;;18.10;12.27;;;;;;;27.49;43.97;95110.75;5029436;28;20197;-71
2021/07/14 06:32:40;;;;;;;15.77;12.73;;;;;;;27.46;43.35;95108.00;5032095;28;20227;-71
2021/07/14 06:35:09;;;;;;;17.30;11.90;;;;;;;27.59;43.54;95109.41;5029017;28;20240;-72
2021/07/14 06:37:38;;;;;;;15.67;11.60;;;;;;;27.55;43.89;95100.47;5026508;28;20193;-71
2021/07/14 06:40:07;;;;;;;20.03;13.87;;;;;;;27.80;42.79;95110.56;5022501;28;20209;-70
2021/07/14 06:42:35;;;;;;;15.10;11.80;;;;;;;27.79;42.65;95102.84;5031268;28;20232;-71
2021/07/14 06:45:03;;;;;;;14.33;11.60;;;;;;;27.96;42.87;95107.75;5030806;28;20664;-73
2021/07/14 06:47:30;;;;;;;17.30;12.47;;;;;;;28.12;42.60;95103.00;5031844;28;20204;-71
2021/07/14 06:49:57;;;;;;;13.10;11.80;;;;;;;28.24;42.22;95102.03;5031738;28;20212;-72
2021/07/14 06:52:24;;;;;;;20.47;12.57;;;;;;;28.21;42.47;95103.53;5031857;28;20647;-72
2021/07/14 06:54:51;;;;;;;13.70;12.40;;;;;;;28.37;42.03;95090.72;5032532;28;20255;-71
2021/07/14 06:57:18;;;;;;;18.77;12.63;;;;;;;28.47;41.11;95090.06;5019942;28;20686;-72
2021/07/14 06:59:45;;;;;;;13.80;12.50;;;;;;;28.46;41.68;95093.91;5014555;28;20229;-72
2021/07/14 07:02:11;;;;;;;15.23;11.47;;;;;;;28.35;42.76;95094.91;5025393;28;20189;-71
2021/07/14 07:04:38;;;;;;;13.87;12.33;;;;;;;28.53;42.30;95102.13;5033616;28;20199;-75
2021/07/14 07:07:06;;;;;;;15.43;11.87;;;;;;;28.48;40.66;95094.34;5031421;28;20201;-73
2021/07/14 07:09:33;;;;;;;18.27;12.67;;;;;;;28.60;41.57;95083.34;5031111;28;20201;-71
2021/07/14 07:12:00;;;;;;;15.67;12.20;;;;;;;28.87;41.16;95082.16;5032668;28;20208;-71
2021/07/14 07:14:28;;;;;;;17.40;12.63;;;;;;;28.91;40.86;95093.78;5015834;28;20210;-71
2021/07/14 07:16:55;;;;;;;16.73;12.17;;;;;;;28.92;40.74;95081.84;5020638;28;20204;-76
2021/07/14 07:19:23;;;;;;;17.07;13.43;;;;;;;29.01;40.93;95088.88;5018204;28;20194;-75
2021/07/14 07:21:50;;;;;;;15.33;12.23;;;;;;;29.12;40.41;95081.72;5030848;28;20197;-72
2021/07/14 07:24:17;;;;;;;16.03;12.87;;;;;;;29.25;39.75;95080.34;5030954;28;20701;-74
2021/07/14 07:26:47;;;;;;;18.47;13.47;;;;;;;29.15;40.21;95070.19;5030672;28;20726;-74
2021/07/14 07:29:14;;;;;;;24.90;13.17;;;;;;;29.38;39.71;95078.94;5030731;28;20205;-76
2021/07/14 07:31:41;;;;;;;15.40;11.90;;;;;;;29.45;38.66;95068.22;5027689;28;20220;-74
2021/07/14 07:34:08;;;;;;;17.03;13.83;;;;;;;29.35;39.82;95068.88;5015640;28;20271;-75
2021/07/14 07:36:35;;;;;;;17.57;12.93;;;;;;;29.58;39.74;95072.19;5030685;28;20215;-75
2021/07/14 07:39:05;;;;;;;14.83;11.93;;;;;;;29.50;38.42;95059.78;5030647;28;20220;-76
2021/07/14 07:41:33;;;;;;;17.30;12.43;;;;;;;29.54;37.97;95063.28;5030255;28;20229;-77
2021/07/14 07:44:04;;;;;;;16.10;12.27;;;;;;;29.66;37.85;95063.00;5030580;28;20255;-76
2021/07/14 07:46:32;;;;;;;18.97;12.23;;;;;;;29.90;38.37;95062.47;5030001;28;20251;-75
2021/07/14 07:49:00;;;;;;;13.43;12.03;;;;;;;29.85;39.38;95065.53;5030851;28;20201;-78
2021/07/14 07:51:27;;;;;;;18.07;13.20;;;;;;;29.90;39.18;95062.47;5022847;28;20190;-75
2021/07/14 07:53:55;;;;;;;18.23;11.77;;;;;;;30.20;37.06;95065.78;5024755;28;20259;-78
2021/07/14 07:56:24;;;;;;;15.87;12.30;;;;;;;30.13;36.77;95054.94;5010774;28;20205;-74
2021/07/14 07:58:51;;;;;;;15.23;13.10;;;;;;;30.29;37.71;95058.16;5022069;28;20612;-77
2021/07/14 08:01:18;;;;;;;14.40;12.93;;;;;;;30.54;37.68;95053.69;5029881;28;20627;-76
2021/07/14 08:03:45;;;;;;;21.27;13.90;;;;;;;30.40;37.22;95044.72;5030597;28;20675;-75
2021/07/14 08:06:12;;;;;;;17.27;13.13;;;;;;;30.46;36.72;95057.50;5016143;28;20268;-73
2021/07/14 08:08:39;;;;;;;22.03;12.57;;;;;;;30.50;37.09;95036.66;5021369;28;20201;-76
2021/07/14 08:11:08;;;;;;;18.67;13.93;;;;;;;30.65;37.37;95049.13;5024086;28;20205;-75
2021/07/14 08:13:36;;;;;;;21.90;13.17;;;;;;;30.62;37.11;95049.84;5010720;28;20678;-74
2021/07/14 08:16:03;;;;;;;20.00;12.07;;;;;;;30.67;37.18;95049.53;5024209;28;20203;-75
2021/07/14 08:18:30;;;;;;;17.17;11.83;;;;;;;30.79;36.50;95042.97;5024109;28;20228;-76
2021/07/14 08:20:57;;;;;;;17.37;12.57;;;;;;;30.74;36.28;95033.31;5022964;28;20201;-74
2021/07/14 08:23:25;;;;;;;17.43;12.47;;;;;;;30.99;35.98;95035.34;5025297;28;20193;-75
2021/07/14 08:25:53;;;;;;;19.33;10.90;;;;;;;30.76;35.24;95035.63;5021137;28;20199;-76
2021/07/14 08:28:21;;;;;;;14.63;11.80;;;;;;;30.71;34.58;95041.41;5029923;28;20280;-77
2021/07/14 08:30:49;;;;;;;14.80;10.73;;;;;;;30.88;34.95;95035.31;5029765;28;20209;-75
2021/07/14 08:33:16;;;;;;;23.57;12.27;;;;;;;31.23;35.35;95040.06;5030326;28;20224;-76
2021/07/14 08:35:43;;;;;;;17.90;11.23;;;;;;;31.18;34.81;95045.88;5030149;28;20201;-75
2021/07/14 08:38:10;;;;;;;13.73;12.00;;;;;;;31.39;35.20;95040.53;5031128;28;20208;-75
2021/07/14 08:40:39;;;;;;;13.57;11.90;;;;;;;31.41;35.44;95040.91;5015737;28;20223;-73
2021/07/14 08:43:09;;;;;;;11.20;9.97;;;;;;;31.31;33.20;95042.44;5031983;28;20197;-77
2021/07/14 08:45:38;;;;;;;10.60;9.43;;;;;;;31.50;33.05;95030.47;5029791;28;20200;-76
2021/07/14 08:48:08;;;;;;;15.27;10.93;;;;;;;31.62;34.50;95035.56;5030017;28;20687;-73
2021/07/14 08:50:46;;;;;;;16.13;10.10;;;;;;;31.78;34.15;95033.22;5029628;28;20231;-76
2021/07/14 08:53:19;;;;;;;10.93;9.80;;;;;;;31.84;33.34;95040.59;5029999;28;20193;-77
2021/07/14 08:55:48;;;;;;;15.87;9.47;;;;;;;31.75;33.01;95031.31;5029481;28;20201;-76
2021/07/14 08:58:20;;;;;;;10.63;8.50;;;;;;;31.56;32.02;95037.09;5031857;28;20196;-76
2021/07/14 09:00:51;;;;;;;11.87;10.60;;;;;;;31.63;32.76;95028.97;5019098;28;20293;-75
2021/07/14 09:03:19;;;;;;;12.37;9.37;;;;;;;31.65;32.24;95037.47;5021018;28;20201;-76
2021/07/14 09:05:46;;;;;;;10.67;9.47;;;;;;;31.89;33.11;95034.03;5020935;28;20218;-75
2021/07/14 09:08:13;;;;;;;12.53;9.50;;;;;;;31.58;31.82;95034.75;5034365;28;20193;-76
2021/07/14 09:10:41;;;;;;;12.30;9.03;;;;;;;31.76;31.24;95024.72;5033162;28;20204;-76
2021/07/14 09:13:11;;;;;;;18.03;10.27;;;;;;;32.17;32.45;95034.00;5033687;28;20197;-74
2021/07/14 09:15:48;;;;;;;14.60;9.07;;;;;;;32.20;31.49;95027.81;5033952;28;20197;-75
2021/07/14 09:18:15;;;;;;;9.00;8.10;;;;;;;32.33;31.42;95030.91;5032941;28;20207;-76
2021/07/14 09:20:43;;;;;;;11.77;9.53;;;;;;;32.04;32.00;95022.03;5033255;28;20672;-74
2021/07/14 09:23:18;;;;;;;17.13;9.60;;;;;;;32.36;32.44;95030.91;5033228;28;20281;-75
2021/07/14 09:25:53;;;;;;;14.53;9.80;;;;;;;32.52;31.88;95025.84;5023404;28;20280;-75
2021/07/14 09:28:25;;;;;;;17.60;9.37;;;;;;;32.51;31.60;95032.44;5027059;28;20204;-75
2021/07/14 09:31:06;;;;;;;10.67;9.40;;;;;;;32.47;31.11;95025.47;5013459;28;20193;-76
2021/07/14 09:33:34;;;;;;;14.70;9.60;;;;;;;32.23;31.64;95016.19;5031368;28;20224;-78
2021/07/14 09:36:02;;;;;;;11.00;9.37;;;;;;;32.55;31.67;95027.78;5033159;28;20316;-75
2021/07/14 09:38:34;;;;;;;12.03;8.97;;;;;;;32.66;30.87;95023.06;5033136;28;20203;-74
2021/07/14 09:41:06;;;;;;;11.13;8.40;;;;;;;32.17;29.82;95017.75;5032731;28;20228;-75
2021/07/14 09:43:45;;;;;;;12.37;9.13;;;;;;;32.47;30.47;95018.13;5033189;28;20573;-74
2021/07/14 09:46:16;;;;;;;11.73;8.60;;;;;;;32.72;30.39;95021.53;5032701;28;20259;-75
2021/07/14 09:48:49;;;;;;;10.90;8.37;;;;;;;32.82;30.23;95011.78;5040577;28;20201;-74
2021/07/14 09:51:19;;;;;;;12.40;9.20;;;;;;;32.74;30.00;95019.19;5039018;28;20199;-76
2021/07/14 09:53:48;;;;;;;14.20;8.30;;;;;;;32.88;29.82;95017.59;5035206;28;20346;-75
2021/07/14 09:56:25;;;;;;;9.80;8.77;;;;;;;33.25;30.01;95020.56;5028816;28;20208;-74
2021/07/14 09:59:03;;;;;;;9.37;8.47;;;;;;;33.11;28.75;95015.97;5026086;28;20236;-74
2021/07/14 10:01:45;;;;;;;9.43;7.80;;;;;;;32.76;28.09;95022.28;5019650;28;20189;-75
2021/07/14 10:04:19;;;;;;;9.80;8.90;;;;;;;33.06;28.30;95023.75;5032703;28;20741;-75
2021/07/14 10:07:15;;;;;;;10.73;8.03;;;;;;;33.27;27.99;95018.19;5023828;28;20227;-75
2021/07/14 10:09:45;;;;;;;10.70;8.50;;;;;;;33.06;26.46;95013.66;5017128;28;20301;-73
2021/07/14 10:12:32;;;;;;;8.03;7.23;;;;;;;33.32;26.93;95009.63;5016572;28;20190;-74
2021/07/14 10:15:30;;;;;;;11.43;8.43;;;;;;;33.51;26.98;95009.16;5034570;28;20213;-76
2021/07/14 10:17:57;;;;;;;8.97;7.97;;;;;;;33.67;26.63;95002.03;5036621;28;20209;-74
2021/07/14 10:20:27;;;;;;;9.33;8.33;;;;;;;33.57;26.63;95004.84;5039358;28;20193;-75
2021/07/14 10:22:57;;;;;;;9.57;8.07;;;;;;;33.80;26.19;94996.88;5039449;28;20205;-74
2021/07/14 10:25:26;;;;;;;11.00;7.87;;;;;;;33.96;26.62;94999.88;5039762;28;20247;-76
2021/07/14 10:27:54;;;;;;;12.67;7.87;;;;;;;34.02;26.90;94992.84;5042110;28;20236;-74
2021/07/14 10:30:22;;;;;;;9.10;8.20;;;;;;;34.12;26.18;94997.44;5040333;28;20193;-75
2021/07/14 10:32:50;;;;;;;8.53;7.63;;;;;;;34.15;25.86;94990.41;5040678;28;20201;-76
2021/07/14 10:35:21;;;;;;;9.10;8.20;;;;;;;34.16;24.99;94976.38;5041479;28;20293;-77
2021/07/14 10:38:25;;;;;;;10.53;7.83;;;;;;;34.40;25.96;94983.53;5031759;28;20423;-75
2021/07/14 10:40:53;;;;;;;9.20;7.90;;;;;;;34.48;25.92;94976.88;5032338;28;20722;-74
2021/07/14 10:43:23;;;;;;;8.40;7.57;;;;;;;34.69;24.73;94975.84;5031978;28;20185;-74
2021/07/14 10:45:56;;;;;;;12.50;8.17;;;;;;;34.87;24.56;94981.09;5031733;28;20184;-76
2021/07/14 10:48:25;;;;;;;8.60;7.83;;;;;;;34.69;24.65;94970.38;5031749;28;20195;-75
2021/07/14 10:50:53;;;;;;;8.27;7.50;;;;;;;34.99;24.85;94972.38;5031427;28;20715;-75
2021/07/14 10:53:22;;;;;;;10.07;7.60;;;;;;;34.95;23.61;94966.22;5031726;28;20280;-76
2021/07/14 10:55:53;;;;;;;9.17;7.33;;;;;;;35.06;23.54;94966.84;5017335;28;20224;-74
2021/07/14 10:58:24;;;;;;;8.50;6.47;;;;;;;34.87;22.56;94975.63;5032038;28;20208;-75
2021/07/14 11:00:51;;;;;;;6.43;5.83;;;;;;;34.86;21.75;94953.06;5030894;28;20205;-76
2021/07/14 11:03:36;;;;;;;7.23;6.13;;;;;;;35.12;22.33;94971.44;5024876;28;20202;-76
2021/07/14 11:06:04;;;;;;;11.17;7.27;;;;;;;35.20;22.78;94961.97;5026986;28;20568;-76
2021/07/14 11:08:49;;;;;;;7.93;6.83;;;;;;;35.15;22.65;94970.59;5031565;28;20197;-74
2021/07/14 11:11:21;;;;;;;12.43;6.93;;;;;;;35.40;22.78;94943.00;5028382;28;20265;-75
2021/07/14 11:14:09;;;;;;;8.70;7.27;;;;;;;35.85;22.76;94963.34;5020851;28;20202;-75
2021/07/14 11:16:38;;;;;;;7.13;6.20;;;;;;;35.56;22.31;94943.94;5025703;28;20194;-76
2021/07/14 11:19:09;;;;;;;9.87;7.20;;;;;;;35.76;23.23;94960.38;5011554;28;20208;-75
2021/07/14 11:21:51;;;;;;;14.97;7.60;;;;;;;35.72;22.36;94959.66;5028357;28;20203;-76
2021/07/14 11:24:36;;;;;;;7.87;6.83;;;;;;;35.56;21.64;94964.97;5032124;28;20205;-76
2021/07/14 11:27:19;;;;;;;8.93;6.43;;;;;;;35.92;21.86;94963.25;5019024;28;20189;-75
2021/07/14 11:29:46;;;;;;;7.77;6.77;;;;;;;35.99;21.75;94951.41;5030325;28;20197;-75
2021/07/14 11:32:40;;;;;;;6.90;6.27;;;;;;;35.61;21.04;94948.16;5021952;28;20281;-77
2021/07/14 11:35:20;;;;;;;7.60;6.80;;;;;;;36.15;21.64;94946.84;5027804;28;20217;-77
2021/07/14 11:37:47;;;;;;;9.13;6.47;;;;;;;36.20;21.99;94946.38;5031390;28;20649;-76
2021/07/14 11:40:20;;;;;;;9.57;6.20;;;;;;;36.14;21.24;94950.78;5030575;28;20201;-76